createdAt,value
2019-05-10T00:00:16.333Z,12.80
2019-05-10T00:03:02.998Z,12.50
2019-05-10T00:05:51.104Z,12.25
2019-05-10T00:08:37.998Z,12.34
2019-05-10T00:11:29.666Z,12.50
2019-05-10T00:14:34.467Z,12.69
2019-05-10T00:17:19.040Z,12.35
2019-05-10T00:19:51.348Z,12.17
2019-05-10T00:22:22.369Z,12.10
2019-05-10T00:25:04.796Z,12.42
2019-05-10T00:27:31.970Z,12.07
2019-05-10T00:30:01.460Z,12.01
2019-05-10T00:32:34.914Z,12.06
2019-05-10T00:35:10.833Z,11.81
2019-05-10T00:37:45.004Z,11.84
2019-05-10T00:40:14.099Z,11.60
2019-05-10T00:42:43.130Z,12.08
2019-05-10T00:45:12.415Z,12.30
2019-05-10T00:47:41.526Z,12.08
2019-05-10T00:50:10.381Z,12.06
2019-05-10T00:52:39.403Z,12.27
2019-05-10T00:55:18.348Z,11.74
2019-05-10T00:57:41.948Z,12.16
2019-05-10T01:00:11.259Z,12.28
2019-05-10T01:02:40.431Z,12.20
2019-05-10T01:05:12.607Z,12.39
2019-05-10T01:07:41.687Z,12.34
2019-05-10T01:10:11.314Z,11.98
2019-05-10T01:12:40.359Z,11.99
2019-05-10T01:15:12.396Z,12.13
2019-05-10T01:17:46.542Z,12.00
2019-05-10T01:20:18.218Z,11.67
2019-05-10T01:22:48.528Z,11.99
2019-05-10T01:25:33.938Z,12.21
2019-05-10T01:27:50.243Z,11.81
2019-05-10T01:30:20.670Z,11.91
2019-05-10T01:32:51.826Z,12.32
2019-05-10T01:35:20.864Z,12.66
2019-05-10T01:37:51.157Z,12.38
2019-05-10T01:40:22.484Z,12.28
2019-05-10T01:42:51.687Z,12.35
2019-05-10T01:45:20.716Z,12.68
2019-05-10T01:47:49.834Z,12.21
2019-05-10T01:50:25.465Z,12.25
2019-05-10T01:52:54.662Z,12.02
2019-05-10T01:55:28.667Z,12.05
2019-05-10T01:58:06.576Z,11.94
2019-05-10T02:00:37.513Z,12.03
2019-05-10T02:03:07.565Z,11.77
2019-05-10T02:05:36.632Z,11.58
2019-05-10T02:08:10.210Z,11.79
2019-05-10T02:10:42.588Z,11.63
2019-05-10T02:13:14.115Z,11.82
2019-05-10T02:15:43.174Z,11.81
2019-05-10T02:18:12.363Z,11.69
2019-05-10T02:20:41.504Z,11.62
2019-05-10T02:23:10.651Z,12.09
2019-05-10T02:25:40.027Z,12.78
2019-05-10T02:28:09.061Z,12.40
2019-05-10T02:30:42.357Z,12.51
2019-05-10T02:33:14.519Z,12.48
2019-05-10T02:35:54.845Z,11.83
2019-05-10T02:38:29.264Z,11.89
2019-05-10T02:41:01.567Z,12.14
2019-05-10T02:43:34.899Z,12.11
2019-05-10T02:46:05.196Z,12.62
2019-05-10T02:48:34.256Z,12.53
2019-05-10T02:51:03.332Z,12.98
2019-05-10T02:53:32.440Z,12.79
2019-05-10T02:56:01.838Z,12.50
2019-05-10T02:58:32.946Z,11.92
2019-05-10T03:01:02.628Z,12.64
2019-05-10T03:03:33.078Z,12.24
2019-05-10T03:06:04.630Z,12.84
2019-05-10T03:08:52.863Z,12.47
2019-05-10T03:11:21.938Z,12.22
2019-05-10T03:14:00.279Z,12.49
2019-05-10T03:16:36.665Z,12.66
2019-05-10T03:19:08.077Z,12.59
2019-05-10T03:21:39.181Z,12.40
2019-05-10T03:24:08.226Z,12.39
2019-05-10T03:26:50.277Z,12.60
2019-05-10T03:29:11.358Z,12.77
2019-05-10T03:31:40.525Z,12.42
2019-05-10T03:34:10.827Z,12.97
2019-05-10T03:36:44.545Z,13.23
2019-05-10T03:39:15.644Z,13.08
2019-05-10T03:41:44.686Z,12.91
2019-05-10T03:44:13.724Z,12.39
2019-05-10T03:46:42.819Z,11.65
2019-05-10T03:49:11.889Z,11.43
2019-05-10T03:51:41.114Z,11.69
2019-05-10T03:54:12.853Z,12.01
2019-05-10T03:56:44.861Z,12.23
2019-05-10T03:59:18.422Z,12.39
2019-05-10T04:01:51.736Z,12.37
2019-05-10T04:04:23.296Z,12.21
2019-05-10T04:06:52.430Z,11.82
2019-05-10T04:09:22.913Z,11.79
2019-05-10T04:12:01.048Z,11.85
2019-05-10T04:14:33.487Z,10.77
2019-05-10T04:17:02.516Z,12.41
2019-05-10T04:19:31.678Z,12.21
2019-05-10T04:22:03.112Z,12.11
2019-05-10T04:24:36.175Z,12.78
2019-05-10T04:27:08.133Z,13.24
2019-05-10T04:29:39.215Z,12.76
2019-05-10T04:32:09.683Z,12.70
2019-05-10T04:34:43.220Z,12.60
2019-05-10T04:37:13.918Z,12.00
2019-05-10T04:39:43.077Z,12.32
2019-05-10T04:42:12.157Z,13.08
2019-05-10T04:44:41.281Z,12.97
2019-05-10T04:47:11.040Z,12.37
2019-05-10T04:49:45.313Z,12.59
2019-05-10T04:52:14.399Z,12.35
2019-05-10T04:54:43.824Z,12.60
2019-05-10T04:57:12.869Z,12.70
2019-05-10T04:59:46.901Z,13.59
2019-05-10T05:02:21.860Z,14.12
2019-05-10T05:04:47.953Z,13.96
2019-05-10T05:07:17.061Z,13.40
2019-05-10T05:09:47.712Z,13.84
2019-05-10T05:12:19.952Z,13.90
2019-05-10T05:14:49.063Z,13.92
2019-05-10T05:17:18.265Z,14.05
2019-05-10T05:19:47.339Z,13.63
2019-05-10T05:22:17.086Z,13.95
2019-05-10T05:24:49.112Z,13.33
2019-05-10T05:27:18.202Z,4.46
2019-05-10T05:29:49.174Z,12.81
2019-05-10T05:32:21.089Z,13.43
2019-05-10T05:34:50.208Z,13.79
2019-05-10T05:37:22.383Z,14.63
2019-05-10T05:39:54.342Z,14.12
2019-05-10T05:42:27.916Z,15.16
2019-05-10T05:44:59.347Z,15.32
2019-05-10T05:47:29.244Z,14.83
2019-05-10T05:50:04.044Z,14.33
2019-05-10T05:52:37.312Z,14.43
2019-05-10T05:55:08.813Z,13.69
2019-05-10T05:57:40.821Z,14.61
2019-05-10T06:00:10.289Z,14.69
2019-05-10T06:02:44.842Z,13.39
2019-05-10T06:05:34.297Z,13.45
2019-05-10T06:07:52.467Z,13.45
2019-05-10T06:10:24.856Z,13.19
2019-05-10T06:12:53.917Z,13.28
2019-05-10T06:15:29.074Z,13.68
2019-05-10T06:17:57.567Z,14.18
2019-05-10T06:20:29.570Z,14.05
2019-05-10T06:23:06.295Z,14.21
2019-05-10T06:25:39.247Z,14.07
2019-05-10T06:28:03.754Z,14.50
2019-05-10T06:30:32.819Z,13.85
2019-05-10T06:33:11.998Z,14.31
2019-05-10T06:35:32.883Z,14.92
2019-05-10T06:38:06.696Z,14.69
2019-05-10T06:40:44.483Z,13.51
2019-05-10T06:43:13.634Z,13.36
2019-05-10T06:45:41.184Z,14.46
2019-05-10T06:48:10.289Z,14.73
2019-05-10T06:50:39.363Z,5.76
2019-05-10T06:53:10.972Z,14.29
2019-05-10T06:55:39.383Z,10.75
2019-05-10T06:58:11.584Z,13.59
2019-05-10T07:00:44.854Z,14.25
2019-05-10T07:03:11.623Z,14.22
2019-05-10T07:05:41.043Z,14.68
2019-05-10T07:08:19.673Z,7.31
2019-05-10T07:10:46.272Z,14.75
2019-05-10T07:13:22.636Z,15.65
2019-05-10T07:15:51.748Z,16.00
2019-05-10T07:18:22.540Z,16.03
2019-05-10T07:20:53.773Z,15.83
2019-05-10T07:23:23.098Z,15.54
2019-05-10T07:25:53.120Z,16.02
2019-05-10T07:28:22.824Z,14.46
2019-05-10T07:30:54.177Z,12.46
2019-05-10T07:33:26.442Z,14.10
2019-05-10T07:35:56.948Z,14.37
2019-05-10T07:38:30.898Z,14.74
2019-05-10T07:40:58.921Z,14.30
2019-05-10T07:43:28.971Z,14.57
2019-05-10T07:46:06.204Z,14.80
2019-05-10T07:48:33.762Z,15.39
2019-05-10T07:51:10.312Z,15.61
2019-05-10T07:53:40.869Z,16.13
2019-05-10T07:56:10.075Z,15.31
2019-05-10T07:58:43.336Z,14.55
2019-05-10T08:01:10.728Z,14.65
2019-05-10T08:03:44.374Z,12.87
2019-05-10T08:06:15.365Z,15.22
2019-05-10T08:08:49.668Z,12.34
2019-05-10T08:11:21.514Z,14.36
2019-05-10T08:13:50.558Z,13.93
2019-05-10T08:16:22.678Z,14.03
2019-05-10T08:18:50.589Z,15.16
2019-05-10T08:21:23.803Z,15.89
2019-05-10T08:23:54.104Z,15.72
2019-05-10T08:26:24.895Z,14.90
2019-05-10T08:28:54.604Z,15.10
2019-05-10T08:31:33.815Z,15.18
2019-05-10T08:34:07.893Z,15.16
2019-05-10T08:36:45.847Z,15.44
2019-05-10T08:39:14.592Z,14.74
2019-05-10T08:41:45.788Z,14.63
2019-05-10T08:44:19.417Z,14.67
2019-05-10T08:46:46.430Z,14.82
2019-05-10T08:49:15.491Z,14.78
2019-05-10T08:51:49.116Z,14.95
2019-05-10T08:54:18.529Z,13.99
2019-05-10T08:56:54.968Z,14.70
2019-05-10T08:59:26.649Z,14.92
2019-05-10T09:02:02.195Z,15.46
2019-05-10T09:04:42.024Z,14.87
2019-05-10T09:07:04.176Z,15.85
2019-05-10T09:09:45.892Z,15.64
2019-05-10T09:12:15.248Z,14.99
2019-05-10T09:14:48.845Z,14.29
2019-05-10T09:17:23.584Z,15.57
2019-05-10T09:19:51.881Z,15.51
2019-05-10T09:22:32.501Z,15.70
2019-05-10T09:25:01.828Z,16.28
2019-05-10T09:27:42.886Z,16.11
2019-05-10T09:30:14.209Z,16.46
2019-05-10T09:32:48.139Z,17.05
2019-05-10T09:35:18.463Z,16.52
2019-05-10T09:37:54.052Z,17.04
2019-05-10T09:40:18.911Z,14.40
2019-05-10T09:42:52.286Z,16.46
2019-05-10T09:45:24.369Z,15.83
2019-05-10T09:47:53.893Z,15.31
2019-05-10T09:50:30.378Z,16.46
2019-05-10T09:52:57.102Z,16.39
2019-05-10T09:55:28.026Z,15.62
2019-05-10T09:57:58.326Z,15.66
2019-05-10T10:01:09.479Z,15.64
2019-05-10T10:03:29.900Z,15.79
2019-05-10T10:06:07.546Z,15.64
2019-05-10T10:08:34.780Z,15.96
2019-05-10T10:11:13.519Z,15.21
2019-05-10T10:13:43.402Z,15.28
2019-05-10T10:16:10.252Z,15.22
2019-05-10T10:18:39.407Z,15.77
2019-05-10T10:21:13.250Z,15.48
2019-05-10T10:23:42.894Z,16.68
2019-05-10T10:26:18.652Z,15.43
2019-05-10T10:28:49.657Z,15.35
2019-05-10T10:31:29.536Z,15.72
2019-05-10T10:33:58.340Z,15.91
2019-05-10T10:36:24.398Z,16.36
2019-05-10T10:38:53.478Z,16.42
2019-05-10T10:41:31.620Z,15.54
2019-05-10T10:43:58.136Z,15.58
2019-05-10T10:46:28.335Z,15.65
2019-05-10T10:49:00.539Z,16.19
2019-05-10T10:51:32.075Z,15.69
2019-05-10T10:54:00.665Z,16.39
2019-05-10T10:56:31.259Z,16.16
2019-05-10T10:59:00.824Z,16.39
2019-05-10T11:01:45.643Z,16.56
2019-05-10T11:04:08.099Z,17.07
2019-05-10T11:06:39.797Z,17.42
2019-05-10T11:09:09.274Z,16.73
2019-05-10T11:11:44.720Z,17.05
2019-05-10T11:14:13.832Z,16.58
2019-05-10T11:16:46.703Z,16.83
2019-05-10T11:19:16.941Z,16.50
2019-05-10T11:21:53.617Z,16.04
2019-05-10T11:24:32.337Z,15.42
2019-05-10T11:27:01.602Z,15.98
2019-05-10T11:29:33.507Z,15.68
2019-05-10T11:32:15.266Z,16.64
2019-05-10T11:34:38.833Z,16.66
2019-05-10T11:37:10.128Z,16.29
2019-05-10T11:39:45.223Z,15.93
2019-05-10T11:42:15.522Z,16.02
2019-05-10T11:44:52.825Z,15.60
2019-05-10T11:47:27.120Z,15.80
2019-05-10T11:50:05.815Z,16.17
2019-05-10T11:52:34.675Z,16.80
2019-05-10T11:55:02.970Z,16.96
2019-05-10T11:57:33.114Z,16.95
2019-05-10T12:00:03.499Z,16.97
2019-05-10T12:02:38.777Z,16.74
2019-05-10T12:05:16.644Z,17.56
2019-05-10T12:07:45.401Z,16.74
2019-05-10T12:10:18.332Z,16.92
2019-05-10T12:15:13.743Z,16.22
2019-05-10T12:17:46.379Z,16.59
2019-05-10T12:20:16.871Z,16.57
2019-05-10T12:22:51.707Z,16.67
2019-05-10T12:26:13.468Z,15.92
2019-05-10T12:26:16.008Z,15.98
2019-05-10T12:27:52.514Z,15.96
2019-05-10T12:30:22.503Z,15.76
2019-05-10T12:32:56.281Z,15.99
2019-05-10T12:35:35.662Z,16.46
2019-05-10T12:37:58.213Z,16.23
2019-05-10T12:40:27.375Z,16.55
2019-05-10T12:42:56.445Z,16.34
2019-05-10T12:45:25.641Z,17.25
2019-05-10T12:47:56.324Z,16.78
2019-05-10T12:50:25.464Z,16.94
2019-05-10T12:53:03.381Z,13.73
2019-05-10T12:55:25.727Z,15.58
2019-05-10T12:57:54.779Z,15.76
2019-05-10T13:00:23.959Z,15.48
2019-05-10T13:02:54.321Z,15.96
2019-05-10T13:05:30.768Z,15.58
2019-05-10T13:07:55.872Z,15.79
2019-05-10T13:10:29.610Z,15.86
2019-05-10T13:12:59.628Z,16.64
2019-05-10T13:15:33.475Z,16.76
2019-05-10T13:18:06.231Z,16.53
2019-05-10T13:20:36.577Z,15.87
2019-05-10T13:23:10.093Z,15.96
2019-05-10T13:25:40.390Z,15.64
2019-05-10T13:28:14.536Z,15.47
2019-05-10T13:30:43.832Z,15.37
2019-05-10T13:33:28.602Z,16.35
2019-05-10T13:35:56.614Z,15.63
2019-05-10T13:38:29.059Z,15.39
2019-05-10T13:41:01.078Z,15.51
2019-05-10T13:43:30.158Z,15.44
2019-05-10T13:45:59.930Z,15.15
2019-05-10T13:48:29.120Z,15.41
2019-05-10T13:50:58.272Z,15.78
2019-05-10T13:53:27.360Z,15.85
2019-05-10T13:55:56.408Z,16.74
2019-05-10T13:58:26.317Z,16.33
2019-05-10T14:01:06.488Z,16.06
2019-05-10T14:03:43.234Z,14.24
2019-05-10T14:06:02.515Z,15.75
2019-05-10T14:08:32.533Z,16.45
2019-05-10T14:11:02.150Z,17.37
2019-05-10T14:13:41.180Z,17.75
2019-05-10T14:16:07.153Z,18.08
2019-05-10T14:18:40.417Z,18.30
2019-05-10T14:21:09.728Z,18.31
2019-05-10T14:23:38.881Z,17.35
2019-05-10T14:26:09.238Z,17.59
2019-05-10T14:28:42.016Z,17.92
2019-05-10T14:31:11.073Z,16.85
2019-05-10T14:33:40.488Z,17.64
2019-05-10T14:36:10.134Z,19.28
2019-05-10T14:38:39.332Z,17.29
2019-05-10T14:41:10.707Z,18.36
2019-05-10T14:43:42.302Z,17.08
2019-05-10T14:46:13.773Z,19.18
2019-05-10T14:48:45.251Z,19.18
2019-05-10T14:51:16.456Z,18.98
2019-05-10T14:53:45.759Z,19.89
2019-05-10T14:56:15.378Z,20.60
2019-05-10T14:58:44.528Z,19.54
2019-05-10T15:01:13.605Z,20.81
2019-05-10T15:03:48.904Z,19.74
2019-05-10T15:06:18.360Z,20.76
2019-05-10T15:08:53.912Z,20.36
2019-05-10T15:11:26.524Z,19.02
2019-05-10T15:13:54.996Z,19.11
2019-05-10T15:16:27.096Z,19.65
2019-05-10T15:19:01.956Z,18.31
2019-05-10T15:21:34.453Z,17.80
2019-05-10T15:24:06.642Z,19.28
2019-05-10T15:26:43.724Z,19.81
2019-05-10T15:29:08.313Z,18.76
2019-05-10T15:31:42.440Z,18.79
2019-05-10T15:34:13.083Z,19.54
2019-05-10T15:36:42.114Z,18.79
2019-05-10T15:39:14.063Z,19.29
2019-05-10T15:41:43.160Z,19.78
2019-05-10T15:44:12.624Z,19.30
2019-05-10T15:46:42.595Z,19.34
2019-05-10T15:49:13.502Z,20.00
2019-05-10T15:51:55.251Z,18.96
2019-05-10T15:54:23.396Z,18.76
2019-05-10T15:56:55.565Z,20.05
2019-05-10T15:59:30.337Z,20.29
2019-05-10T16:01:59.836Z,19.04
2019-05-10T16:04:28.961Z,19.28
2019-05-10T16:07:01.617Z,18.60
2019-05-10T16:09:30.973Z,19.17
2019-05-10T16:12:08.406Z,19.86
2019-05-10T16:14:39.032Z,20.05
2019-05-10T16:17:10.245Z,20.31
2019-05-10T16:19:44.805Z,20.44
2019-05-10T16:22:13.860Z,12.51
2019-05-10T16:24:43.208Z,17.95
2019-05-10T16:27:15.295Z,17.74
2019-05-10T16:29:45.700Z,18.36
2019-05-10T16:32:14.870Z,18.81
2019-05-10T16:34:46.123Z,17.47
2019-05-10T16:37:15.288Z,17.84
2019-05-10T16:39:44.415Z,18.08
2019-05-10T16:42:15.916Z,17.95
2019-05-10T16:44:44.709Z,18.26
2019-05-10T16:47:13.834Z,18.43
2019-05-10T16:49:47.719Z,18.56
2019-05-10T16:52:14.345Z,19.21
2019-05-10T16:54:43.829Z,18.52
2019-05-10T16:57:16.395Z,17.98
2019-05-10T16:59:44.772Z,18.88
2019-05-10T17:02:15.315Z,18.89
2019-05-10T17:04:44.412Z,19.31
2019-05-10T17:07:18.828Z,19.54
2019-05-10T17:09:49.579Z,19.45
2019-05-10T17:12:27.422Z,19.22
2019-05-10T17:15:02.752Z,19.18
2019-05-10T17:17:31.231Z,19.29
2019-05-10T17:20:07.685Z,19.29
2019-05-10T17:22:37.666Z,19.26
2019-05-10T17:25:08.868Z,19.31
2019-05-10T17:27:40.223Z,19.41
2019-05-10T17:30:11.088Z,19.22
2019-05-10T17:32:44.521Z,19.21
2019-05-10T17:35:14.015Z,19.56
2019-05-10T17:37:48.188Z,19.46
2019-05-10T17:40:17.637Z,19.34
2019-05-10T17:42:47.023Z,19.33
2019-05-10T17:45:19.044Z,19.43
2019-05-10T17:47:48.917Z,19.52
2019-05-10T17:50:19.528Z,19.51
2019-05-10T17:52:48.582Z,19.27
2019-05-10T17:55:18.953Z,19.40
2019-05-10T17:57:54.367Z,19.32
2019-05-10T18:00:20.207Z,19.23
2019-05-10T18:02:49.383Z,19.07
2019-05-10T18:05:18.737Z,19.01
2019-05-10T18:07:49.458Z,19.06
2019-05-10T18:10:22.260Z,19.07
2019-05-10T18:12:57.307Z,19.14
2019-05-10T18:15:27.631Z,19.02
2019-05-10T18:18:02.661Z,19.08
2019-05-10T18:20:41.424Z,19.03
2019-05-10T18:23:05.884Z,19.02
2019-05-10T18:25:35.008Z,18.89
2019-05-10T18:28:04.049Z,18.85
2019-05-10T18:30:36.195Z,18.94
2019-05-10T18:33:12.480Z,18.76
2019-05-10T18:35:39.315Z,18.66
2019-05-10T18:38:08.413Z,11.26
2019-05-10T18:40:38.944Z,18.56
2019-05-10T18:43:07.992Z,18.61
2019-05-10T18:45:42.450Z,18.63
2019-05-10T18:48:11.583Z,18.50
2019-05-10T18:50:45.249Z,18.50
2019-05-10T18:53:17.617Z,18.61
2019-05-10T18:55:51.808Z,18.54
2019-05-10T18:58:23.224Z,18.17
2019-05-10T19:00:56.092Z,18.42
2019-05-10T19:03:27.972Z,18.32
2019-05-10T19:05:53.694Z,18.24
2019-05-10T19:08:22.793Z,18.30
2019-05-10T19:10:51.885Z,18.27
2019-05-10T19:13:24.262Z,18.29
2019-05-10T19:15:58.220Z,17.88
2019-05-10T19:18:25.584Z,17.97
2019-05-10T19:20:55.247Z,17.64
2019-05-10T19:23:28.428Z,17.81
2019-05-10T19:25:57.966Z,18.00
2019-05-10T19:28:28.413Z,17.99
2019-05-10T19:30:58.789Z,18.05
2019-05-10T19:33:36.608Z,18.10
2019-05-10T19:36:02.764Z,18.13
2019-05-10T19:38:31.899Z,17.77
2019-05-10T19:41:00.983Z,17.88
2019-05-10T19:43:30.420Z,17.95
2019-05-10T19:46:03.363Z,17.85
2019-05-10T19:48:35.700Z,17.67
2019-05-10T19:51:09.674Z,17.60
2019-05-10T19:53:36.339Z,17.65
2019-05-10T19:56:06.012Z,17.63
2019-05-10T19:58:38.301Z,17.76
2019-05-10T20:01:11.326Z,17.75
2019-05-10T20:03:40.401Z,17.73
2019-05-10T20:06:09.589Z,17.83
2019-05-10T20:08:38.655Z,17.83
2019-05-10T20:11:07.736Z,17.72
2019-05-10T20:13:36.782Z,17.60
2019-05-10T20:16:05.867Z,17.70
2019-05-10T20:18:37.034Z,17.34
2019-05-10T20:21:07.918Z,17.46
2019-05-10T20:23:36.945Z,17.34
2019-05-10T20:26:07.960Z,17.36
2019-05-10T20:28:43.031Z,17.34
2019-05-10T20:31:12.166Z,17.41
2019-05-10T20:33:41.275Z,17.26
2019-05-10T20:36:11.305Z,17.48
2019-05-10T20:38:40.339Z,17.59
2019-05-10T20:41:09.776Z,17.59
2019-05-10T20:43:40.838Z,17.39
2019-05-10T20:46:11.567Z,17.52
2019-05-10T20:48:41.891Z,17.44
2019-05-10T20:51:15.221Z,17.36
2019-05-10T20:53:47.707Z,17.26
2019-05-10T20:56:15.760Z,17.29
2019-05-10T20:58:48.225Z,17.37
2019-05-10T21:01:21.437Z,17.09
2019-05-10T21:03:53.696Z,17.26
2019-05-10T21:06:25.996Z,17.40
2019-05-10T21:08:55.143Z,17.57
2019-05-10T21:11:25.420Z,17.59
2019-05-10T21:13:57.773Z,17.55
2019-05-10T21:16:25.321Z,17.40
2019-05-10T21:18:55.700Z,16.84
2019-05-10T21:21:24.905Z,16.31
2019-05-10T21:23:53.984Z,16.34
2019-05-10T21:26:24.499Z,16.48
2019-05-10T21:28:55.252Z,16.55
2019-05-10T21:31:24.425Z,16.61
2019-05-10T21:34:08.737Z,16.59
2019-05-10T21:36:24.832Z,16.41
2019-05-10T21:38:55.390Z,16.29
2019-05-10T21:41:26.953Z,16.15
2019-05-10T21:43:56.086Z,16.21
2019-05-10T21:46:25.132Z,16.22
2019-05-10T21:48:54.223Z,16.26
2019-05-10T21:51:23.279Z,16.20
2019-05-10T21:53:52.354Z,16.29
2019-05-10T21:56:21.431Z,16.41
2019-05-10T21:58:51.654Z,16.11
2019-05-10T22:01:25.155Z,16.02
2019-05-10T22:03:59.580Z,16.41
2019-05-10T22:06:28.643Z,16.70
2019-05-10T22:08:59.033Z,16.33
2019-05-10T22:11:28.127Z,16.52
2019-05-10T22:13:57.197Z,16.20
2019-05-10T22:16:28.232Z,15.56
2019-05-10T22:19:06.562Z,15.17
2019-05-10T22:21:41.466Z,14.32
2019-05-10T22:24:10.558Z,14.02
2019-05-10T22:26:41.813Z,13.87
2019-05-10T22:29:15.744Z,13.75
2019-05-10T22:31:50.083Z,13.62
2019-05-10T22:34:25.202Z,13.77
2019-05-10T22:36:55.348Z,13.42
2019-05-10T22:39:27.412Z,14.41
2019-05-10T22:41:56.892Z,12.71
2019-05-10T22:44:25.981Z,14.39
2019-05-10T22:46:58.515Z,14.43
2019-05-10T22:49:32.507Z,14.58
2019-05-10T22:52:04.462Z,14.48
2019-05-10T22:54:38.540Z,14.28
2019-05-10T22:57:18.068Z,14.49
2019-05-10T22:59:49.887Z,14.14
2019-05-10T23:02:19.813Z,14.14
2019-05-10T23:04:48.993Z,14.25
2019-05-10T23:07:18.114Z,13.71
2019-05-10T23:09:47.489Z,14.17
2019-05-10T23:12:16.563Z,13.91
2019-05-10T23:14:45.624Z,13.89
2019-05-10T23:17:14.731Z,13.68
2019-05-10T23:19:54.443Z,13.64
2019-05-10T23:22:23.535Z,13.14
2019-05-10T23:24:53.542Z,11.34
2019-05-10T23:27:22.627Z,13.54
2019-05-10T23:29:51.731Z,13.38
2019-05-10T23:32:20.869Z,13.87
2019-05-10T23:34:49.898Z,13.73
2019-05-10T23:37:19.741Z,13.60
2019-05-10T23:39:51.649Z,13.84
2019-05-10T23:42:20.757Z,14.18
2019-05-10T23:44:55.824Z,14.40
2019-05-10T23:47:28.122Z,14.08
2019-05-10T23:49:57.178Z,14.05
2019-05-10T23:52:26.252Z,13.78
2019-05-10T23:54:55.468Z,13.82
2019-05-10T23:57:24.691Z,13.76
2019-05-10T23:59:58.064Z,13.95
